Flight Track Log - Related Links

Times and Time Zones

All times are in EDT time to prevent confusion due to time zone crossing. See the N121JM flight status page for this flight to view local times or setup timezone preferences in your user account.

Time Position Orientation Groundspeed Altitude Reporting Facility
EDT Latitude Longitude Course Direction KTS MPH feet Rate Location/Type
Wed 06:47:28 AM 39.6833 -75.6167 270° West 154 177 700  Level Philadelphia TRACON
Wed 06:47:46 AM 39.6833 -75.6500 270° West 170 196 1,200 1,953 Climbing Philadelphia TRACON
Wed 06:48:11 AM 39.6708 -75.6681 228° Southwest 181 208 2,100 2,133 Climbing FAA TRACON SMA TRACON (SMA)
Wed 06:48:31 AM 39.6642 -75.6861 244° Southwest 180 207 2,800 1,350 Climbing FAA TRACON SMA TRACON (SMA)
Wed 06:48:51 AM 39.6511 -75.6967 212° Southwest 196 226 3,000 308 Climbing FAA TRACON SMA TRACON (SMA)
Wed 06:49:10 AM 39.6289 -75.6944 176° South 236 272 3,000  Level FAA TRACON SMA TRACON (SMA)
Wed 06:49:31 AM 39.6147 -75.6772 137° Southeast 230 265 3,000  Level FAA TRACON SMA TRACON (SMA)
Wed 06:49:50 AM 39.6081 -75.6519 109° East 251 289 3,000  Level FAA TRACON SMA TRACON (SMA)
Wed 06:50:11 AM 39.6117 -75.6172 82° East 254 292 3,000  Level FAA TRACON SMA TRACON (SMA)
Wed 06:50:31 AM 39.6164 -75.5914 77° East 240 276 3,000 154 Level FAA TRACON SMA TRACON (SMA)
Wed 06:50:50 AM 39.6217 -75.5628 77° East 255 293 3,100  Climbing FAA TRACON SMA TRACON (SMA)
Wed 06:51:11 AM 39.6275 -75.5261 78° East 263 303 3,000  Descending FAA TRACON SMA TRACON (SMA)
Wed 06:51:31 AM 39.6325 -75.4967 78° East 271 312 3,100  Climbing FAA TRACON SMA TRACON (SMA)
Wed 06:51:51 AM 39.6378 -75.4669 77° East 274 315 3,000 -154 Descending FAA TRACON SMA TRACON (SMA)
Wed 06:52:10 AM 39.6436 -75.4289 79° East 281 323 3,000  Level FAA TRACON SMA TRACON (SMA)
Wed 06:52:31 AM 39.6486 -75.3972 78° East 284 327 3,000  Level FAA TRACON SMA TRACON (SMA)
Wed 06:52:50 AM 39.6525 -75.3658 81° East 284 327 3,000  Level FAA TRACON SMA TRACON (SMA)
Wed 06:53:11 AM 39.6600 -75.3275 76° East 286 329 3,000  Level FAA TRACON SMA TRACON (SMA)
Wed 06:53:30 AM 39.6650 -75.2967 78° East 286 329 3,000 150 Level FAA TRACON SMA TRACON (SMA)
Wed 06:53:51 AM 39.6700 -75.2611 80° East 286 329 3,100  Climbing FAA TRACON SMA TRACON (SMA)
Wed 06:54:11 AM 39.6758 -75.2275 77° East 283 326 3,000 -146 Descending FAA TRACON SMA TRACON (SMA)
Wed 06:54:32 AM 39.6814 -75.1978 76° East 282 325 3,000 -150 Level FAA TRACON SMA TRACON (SMA)
Wed 06:54:51 AM 39.6867 -75.1614 79° East 273 314 2,900 -615 Descending FAA TRACON SMA TRACON (SMA)
Wed 06:55:11 AM 39.6989 -75.1372 57° Northeast 253 291 2,600 -923 Descending FAA TRACON SMA TRACON (SMA)
Wed 06:55:30 AM 39.7172 -75.1247 28° Northeast 242 278 2,300 -600 Descending FAA TRACON SMA TRACON (SMA)
Wed 06:55:51 AM 39.7394 -75.1275 355° North 217 250 2,200 -150 Descending FAA TRACON SMA TRACON (SMA)
Wed 06:56:10 AM 39.7589 -75.1314 351° North 208 239 2,200 -150 Level FAA TRACON SMA TRACON (SMA)
Wed 06:56:31 AM 39.7728 -75.1408 332° Northwest 186 214 2,100 -750 Descending FAA TRACON SMA TRACON (SMA)
Wed 06:56:50 AM 39.7825 -75.1614 302° West 172 198 1,700 -1,050 Descending FAA TRACON SMA TRACON (SMA)
Wed 06:57:11 AM 39.7864 -75.1794 286° West 160 184 1,400 -878 Descending FAA TRACON SMA TRACON (SMA)
Wed 06:57:31 AM 39.7914 -75.1911 299° West 148 170 1,100 -600 Descending FAA TRACON SMA TRACON (SMA)
Wed 06:57:51 AM 39.8083 -75.2000 338° Northwest 166 191 1,000 -450 Descending FAA TRACON SMA TRACON (SMA)
Wed 06:58:11 AM 39.8214 -75.2025 352° North 155 178 800 -308 Descending FAA TRACON SMA TRACON (SMA)
Wed 06:58:30 AM 39.8336 -75.2089 338° Northwest 155 178 800 -450 Level FAA TRACON SMA TRACON (SMA)
Wed 06:58:51 AM 39.8481 -75.2164 338° Northwest 148 170 500 -750 Descending FAA TRACON SMA TRACON (SMA)
Wed 06:59:10 AM 39.8600 -75.2228 338° Northwest 150 173 300 -600 Descending FAA TRACON SMA TRACON (SMA)
Wed 06:59:31 AM 39.8686 -75.2269 340° North 148 170 100 -197 Descending FAA TRACON SMA TRACON (SMA)
Wed 07:00:11 AM 39.8686 -75.2269 288° West 148 170 100  Level FAA TRACON SMA TRACON (SMA)
Wed 07:02:00 AM 39.8667 -75.2333 30° Northeast  Level FlightAware Approximate
Wed 07:09:00 AM 39.8722 -75.2409 30° Northeast  Level Estimated
Wed 07:10:00 AM 39.8722 -75.2409 30° Northeast  Level Estimated
Wed 07:11:00 AM 39.8722 -75.2409 30° Northeast  Level Estimated
Wed 07:12:00 AM 39.8722 -75.2409 30° Northeast  Level Estimated
Wed 07:13:00 AM 39.8722 -75.2409 30° Northeast  Level Estimated

Login

Don't have an account? Register now (free) for customized features, flight alerts, and more!